sensor_id;sensor_type;location;lat;lon;timestamp;P1;durP1;ratioP1;P2;durP2;ratioP2
81229;SDS011;70701;44.452;18.652;2023-12-20T00:01:47;186.10;;;96.70;;
81229;SDS011;70701;44.452;18.652;2023-12-20T00:04:12;209.83;;;105.70;;
81229;SDS011;70701;44.452;18.652;2023-12-20T00:06:39;193.87;;;97.33;;
81229;SDS011;70701;44.452;18.652;2023-12-20T00:09:05;181.83;;;99.00;;
81229;SDS011;70701;44.452;18.652;2023-12-20T00:11:30;200.87;;;107.97;;
81229;SDS011;70701;44.452;18.652;2023-12-20T00:13:56;171.93;;;96.83;;
81229;SDS011;70701;44.452;18.652;2023-12-20T00:16:21;182.60;;;100.80;;
81229;SDS011;70701;44.452;18.652;2023-12-20T00:18:47;182.47;;;104.00;;
81229;SDS011;70701;44.452;18.652;2023-12-20T00:21:13;201.90;;;107.93;;
81229;SDS011;70701;44.452;18.652;2023-12-20T00:23:38;199.57;;;106.30;;
81229;SDS011;70701;44.452;18.652;2023-12-20T00:26:04;220.17;;;113.40;;
81229;SDS011;70701;44.452;18.652;2023-12-20T00:28:29;210.97;;;113.40;;
81229;SDS011;70701;44.452;18.652;2023-12-20T00:30:55;235.70;;;122.47;;
81229;SDS011;70701;44.452;18.652;2023-12-20T00:33:20;261.97;;;139.17;;
81229;SDS011;70701;44.452;18.652;2023-12-20T00:35:46;257.70;;;137.20;;
81229;SDS011;70701;44.452;18.652;2023-12-20T00:38:12;254.87;;;136.37;;
81229;SDS011;70701;44.452;18.652;2023-12-20T00:40:37;241.70;;;129.83;;
81229;SDS011;70701;44.452;18.652;2023-12-20T00:43:03;238.30;;;124.77;;
81229;SDS011;70701;44.452;18.652;2023-12-20T00:45:29;246.27;;;122.80;;
81229;SDS011;70701;44.452;18.652;2023-12-20T00:47:54;214.17;;;116.00;;
81229;SDS011;70701;44.452;18.652;2023-12-20T00:50:20;214.10;;;109.37;;
81229;SDS011;70701;44.452;18.652;2023-12-20T00:52:47;199.57;;;103.03;;
81229;SDS011;70701;44.452;18.652;2023-12-20T00:55:13;182.77;;;102.87;;
81229;SDS011;70701;44.452;18.652;2023-12-20T00:57:39;169.77;;;91.63;;
81229;SDS011;70701;44.452;18.652;2023-12-20T01:00:05;155.67;;;85.97;;
81229;SDS011;70701;44.452;18.652;2023-12-20T01:02:31;146.17;;;83.43;;
81229;SDS011;70701;44.452;18.652;2023-12-20T01:05:15;143.57;;;80.43;;
81229;SDS011;70701;44.452;18.652;2023-12-20T01:08:05;144.30;;;84.07;;
81229;SDS011;70701;44.452;18.652;2023-12-20T01:10:30;145.53;;;80.17;;
81229;SDS011;70701;44.452;18.652;2023-12-20T01:12:57;165.33;;;92.13;;
81229;SDS011;70701;44.452;18.652;2023-12-20T01:15:22;146.67;;;81.73;;
81229;SDS011;70701;44.452;18.652;2023-12-20T01:17:48;150.40;;;78.63;;
81229;SDS011;70701;44.452;18.652;2023-12-20T01:20:14;150.13;;;82.87;;
81229;SDS011;70701;44.452;18.652;2023-12-20T01:22:40;153.40;;;78.53;;
81229;SDS011;70701;44.452;18.652;2023-12-20T01:25:08;158.40;;;87.17;;
81229;SDS011;70701;44.452;18.652;2023-12-20T01:27:34;140.53;;;80.17;;
81229;SDS011;70701;44.452;18.652;2023-12-20T01:29:59;140.93;;;81.20;;
81229;SDS011;70701;44.452;18.652;2023-12-20T01:32:25;155.83;;;81.67;;
81229;SDS011;70701;44.452;18.652;2023-12-20T01:34:50;158.57;;;81.83;;
81229;SDS011;70701;44.452;18.652;2023-12-20T01:37:16;162.43;;;92.47;;
81229;SDS011;70701;44.452;18.652;2023-12-20T01:39:42;164.07;;;90.97;;
81229;SDS011;70701;44.452;18.652;2023-12-20T01:42:07;152.43;;;82.37;;
81229;SDS011;70701;44.452;18.652;2023-12-20T01:44:33;162.70;;;90.03;;
81229;SDS011;70701;44.452;18.652;2023-12-20T01:46:59;173.43;;;93.70;;
81229;SDS011;70701;44.452;18.652;2023-12-20T01:49:25;185.23;;;100.30;;
81229;SDS011;70701;44.452;18.652;2023-12-20T01:51:51;224.80;;;120.13;;
81229;SDS011;70701;44.452;18.652;2023-12-20T01:54:17;208.47;;;117.90;;
81229;SDS011;70701;44.452;18.652;2023-12-20T01:56:45;199.67;;;105.60;;
81229;SDS011;70701;44.452;18.652;2023-12-20T01:59:11;190.80;;;101.00;;
81229;SDS011;70701;44.452;18.652;2023-12-20T02:01:37;170.63;;;93.10;;
81229;SDS011;70701;44.452;18.652;2023-12-20T02:04:03;174.57;;;86.60;;
81229;SDS011;70701;44.452;18.652;2023-12-20T02:06:29;157.50;;;84.53;;
81229;SDS011;70701;44.452;18.652;2023-12-20T02:08:58;121.00;;;67.90;;
81229;SDS011;70701;44.452;18.652;2023-12-20T02:11:25;103.40;;;60.40;;
81229;SDS011;70701;44.452;18.652;2023-12-20T02:13:51;108.43;;;61.63;;
81229;SDS011;70701;44.452;18.652;2023-12-20T02:16:17;116.57;;;64.93;;
81229;SDS011;70701;44.452;18.652;2023-12-20T02:18:42;108.80;;;63.03;;
81229;SDS011;70701;44.452;18.652;2023-12-20T02:21:12;121.00;;;63.20;;
81229;SDS011;70701;44.452;18.652;2023-12-20T02:23:37;112.23;;;66.17;;
81229;SDS011;70701;44.452;18.652;2023-12-20T02:26:03;117.37;;;65.13;;
81229;SDS011;70701;44.452;18.652;2023-12-20T02:28:30;114.63;;;65.67;;
81229;SDS011;70701;44.452;18.652;2023-12-20T02:30:57;118.70;;;63.07;;
81229;SDS011;70701;44.452;18.652;2023-12-20T02:33:22;109.40;;;63.70;;
81229;SDS011;70701;44.452;18.652;2023-12-20T02:35:48;128.20;;;66.57;;
81229;SDS011;70701;44.452;18.652;2023-12-20T02:38:14;134.03;;;70.43;;
81229;SDS011;70701;44.452;18.652;2023-12-20T02:40:39;127.57;;;71.77;;
81229;SDS011;70701;44.452;18.652;2023-12-20T02:43:05;132.53;;;71.63;;
81229;SDS011;70701;44.452;18.652;2023-12-20T02:45:30;143.10;;;77.50;;
81229;SDS011;70701;44.452;18.652;2023-12-20T02:47:56;144.57;;;77.23;;
81229;SDS011;70701;44.452;18.652;2023-12-20T02:50:22;138.30;;;75.43;;
81229;SDS011;70701;44.452;18.652;2023-12-20T02:52:49;116.77;;;66.57;;
81229;SDS011;70701;44.452;18.652;2023-12-20T02:55:14;127.50;;;65.57;;
81229;SDS011;70701;44.452;18.652;2023-12-20T02:57:40;122.27;;;67.13;;
81229;SDS011;70701;44.452;18.652;2023-12-20T03:00:09;120.17;;;66.60;;
81229;SDS011;70701;44.452;18.652;2023-12-20T03:02:36;120.40;;;64.17;;
81229;SDS011;70701;44.452;18.652;2023-12-20T03:05:02;117.77;;;64.13;;
81229;SDS011;70701;44.452;18.652;2023-12-20T03:07:28;111.83;;;61.73;;
81229;SDS011;70701;44.452;18.652;2023-12-20T03:09:53;111.60;;;61.00;;
81229;SDS011;70701;44.452;18.652;2023-12-20T03:12:19;112.30;;;61.60;;
81229;SDS011;70701;44.452;18.652;2023-12-20T03:14:45;105.43;;;60.10;;
81229;SDS011;70701;44.452;18.652;2023-12-20T03:17:10;100.33;;;54.97;;
81229;SDS011;70701;44.452;18.652;2023-12-20T03:19:36;94.30;;;53.33;;
81229;SDS011;70701;44.452;18.652;2023-12-20T03:22:02;99.67;;;52.60;;
81229;SDS011;70701;44.452;18.652;2023-12-20T03:24:27;100.90;;;53.37;;
81229;SDS011;70701;44.452;18.652;2023-12-20T03:26:53;91.60;;;52.10;;
81229;SDS011;70701;44.452;18.652;2023-12-20T03:29:19;101.97;;;56.43;;
81229;SDS011;70701;44.452;18.652;2023-12-20T03:31:44;99.83;;;54.80;;
81229;SDS011;70701;44.452;18.652;2023-12-20T03:34:10;102.43;;;53.87;;
81229;SDS011;70701;44.452;18.652;2023-12-20T03:36:37;105.80;;;52.43;;
81229;SDS011;70701;44.452;18.652;2023-12-20T03:39:02;101.30;;;52.37;;
81229;SDS011;70701;44.452;18.652;2023-12-20T03:41:28;104.40;;;52.50;;
81229;SDS011;70701;44.452;18.652;2023-12-20T03:43:54;99.07;;;52.70;;
81229;SDS011;70701;44.452;18.652;2023-12-20T03:46:19;95.87;;;51.70;;
81229;SDS011;70701;44.452;18.652;2023-12-20T03:48:45;138.17;;;75.10;;
81229;SDS011;70701;44.452;18.652;2023-12-20T03:51:12;204.80;;;114.33;;
81229;SDS011;70701;44.452;18.652;2023-12-20T03:53:37;161.10;;;90.30;;
81229;SDS011;70701;44.452;18.652;2023-12-20T03:56:05;146.87;;;78.77;;
81229;SDS011;70701;44.452;18.652;2023-12-20T03:58:31;161.57;;;84.17;;
81229;SDS011;70701;44.452;18.652;2023-12-20T04:00:57;214.93;;;114.77;;
81229;SDS011;70701;44.452;18.652;2023-12-20T04:03:23;230.83;;;124.70;;
81229;SDS011;70701;44.452;18.652;2023-12-20T04:05:49;127.57;;;70.17;;
81229;SDS011;70701;44.452;18.652;2023-12-20T04:08:15;118.00;;;62.17;;
81229;SDS011;70701;44.452;18.652;2023-12-20T04:10:41;134.60;;;64.87;;
81229;SDS011;70701;44.452;18.652;2023-12-20T04:13:06;121.83;;;63.20;;
81229;SDS011;70701;44.452;18.652;2023-12-20T04:15:32;121.43;;;63.50;;
81229;SDS011;70701;44.452;18.652;2023-12-20T04:17:59;109.63;;;60.47;;
81229;SDS011;70701;44.452;18.652;2023-12-20T04:20:24;123.33;;;62.30;;
81229;SDS011;70701;44.452;18.652;2023-12-20T04:22:50;111.37;;;56.63;;
81229;SDS011;70701;44.452;18.652;2023-12-20T04:25:15;102.33;;;56.53;;
81229;SDS011;70701;44.452;18.652;2023-12-20T04:27:41;109.40;;;54.83;;
81229;SDS011;70701;44.452;18.652;2023-12-20T04:30:07;94.37;;;53.10;;
81229;SDS011;70701;44.452;18.652;2023-12-20T04:32:33;92.57;;;50.47;;
81229;SDS011;70701;44.452;18.652;2023-12-20T04:34:58;99.93;;;54.47;;
81229;SDS011;70701;44.452;18.652;2023-12-20T04:37:24;94.17;;;52.07;;
81229;SDS011;70701;44.452;18.652;2023-12-20T04:39:50;104.73;;;55.27;;
81229;SDS011;70701;44.452;18.652;2023-12-20T04:42:15;112.37;;;58.30;;
81229;SDS011;70701;44.452;18.652;2023-12-20T04:44:41;107.00;;;59.00;;
81229;SDS011;70701;44.452;18.652;2023-12-20T04:47:09;124.47;;;66.40;;
81229;SDS011;70701;44.452;18.652;2023-12-20T04:49:34;117.77;;;65.83;;
81229;SDS011;70701;44.452;18.652;2023-12-20T04:52:00;131.13;;;71.13;;
81229;SDS011;70701;44.452;18.652;2023-12-20T04:54:25;124.87;;;69.13;;
81229;SDS011;70701;44.452;18.652;2023-12-20T04:56:51;126.47;;;70.50;;
81229;SDS011;70701;44.452;18.652;2023-12-20T04:59:17;124.13;;;67.93;;
81229;SDS011;70701;44.452;18.652;2023-12-20T05:01:42;128.43;;;70.67;;
81229;SDS011;70701;44.452;18.652;2023-12-20T05:04:08;126.83;;;69.97;;
81229;SDS011;70701;44.452;18.652;2023-12-20T05:06:33;141.27;;;73.10;;
81229;SDS011;70701;44.452;18.652;2023-12-20T05:08:59;125.33;;;65.67;;
81229;SDS011;70701;44.452;18.652;2023-12-20T05:11:25;114.33;;;58.53;;
81229;SDS011;70701;44.452;18.652;2023-12-20T05:13:50;110.53;;;60.23;;
81229;SDS011;70701;44.452;18.652;2023-12-20T05:16:18;110.47;;;57.63;;
81229;SDS011;70701;44.452;18.652;2023-12-20T05:18:44;123.57;;;58.30;;
81229;SDS011;70701;44.452;18.652;2023-12-20T05:21:10;116.97;;;57.63;;
81229;SDS011;70701;44.452;18.652;2023-12-20T05:23:36;117.97;;;58.70;;
81229;SDS011;70701;44.452;18.652;2023-12-20T05:26:02;103.93;;;56.27;;
81229;SDS011;70701;44.452;18.652;2023-12-20T05:28:27;118.50;;;59.40;;
81229;SDS011;70701;44.452;18.652;2023-12-20T05:30:53;138.83;;;73.47;;
81229;SDS011;70701;44.452;18.652;2023-12-20T05:33:19;113.03;;;60.23;;
81229;SDS011;70701;44.452;18.652;2023-12-20T05:35:45;98.90;;;55.97;;
81229;SDS011;70701;44.452;18.652;2023-12-20T05:38:10;115.70;;;60.97;;
81229;SDS011;70701;44.452;18.652;2023-12-20T05:40:36;119.60;;;63.13;;
81229;SDS011;70701;44.452;18.652;2023-12-20T05:43:02;112.97;;;61.83;;
81229;SDS011;70701;44.452;18.652;2023-12-20T05:45:27;113.07;;;60.80;;
81229;SDS011;70701;44.452;18.652;2023-12-20T05:47:53;111.40;;;62.43;;
81229;SDS011;70701;44.452;18.652;2023-12-20T05:50:19;127.43;;;67.63;;
81229;SDS011;70701;44.452;18.652;2023-12-20T05:52:44;110.97;;;62.20;;
81229;SDS011;70701;44.452;18.652;2023-12-20T05:55:10;120.50;;;63.90;;
81229;SDS011;70701;44.452;18.652;2023-12-20T05:57:35;118.60;;;65.53;;
81229;SDS011;70701;44.452;18.652;2023-12-20T06:00:01;154.20;;;78.70;;
81229;SDS011;70701;44.452;18.652;2023-12-20T06:02:27;165.23;;;80.80;;
81229;SDS011;70701;44.452;18.652;2023-12-20T06:04:52;175.07;;;83.77;;
81229;SDS011;70701;44.452;18.652;2023-12-20T06:07:18;189.03;;;91.37;;
81229;SDS011;70701;44.452;18.652;2023-12-20T06:09:44;172.47;;;87.23;;
81229;SDS011;70701;44.452;18.652;2023-12-20T06:12:10;171.37;;;87.20;;
81229;SDS011;70701;44.452;18.652;2023-12-20T06:14:36;155.33;;;77.77;;
81229;SDS011;70701;44.452;18.652;2023-12-20T06:17:02;166.63;;;82.73;;
81229;SDS011;70701;44.452;18.652;2023-12-20T06:19:28;204.17;;;99.33;;
81229;SDS011;70701;44.452;18.652;2023-12-20T06:21:53;219.37;;;108.13;;
81229;SDS011;70701;44.452;18.652;2023-12-20T06:24:19;225.57;;;111.90;;
81229;SDS011;70701;44.452;18.652;2023-12-20T06:26:45;231.67;;;111.73;;
81229;SDS011;70701;44.452;18.652;2023-12-20T06:29:11;190.87;;;96.17;;
81229;SDS011;70701;44.452;18.652;2023-12-20T06:31:37;189.77;;;97.27;;
81229;SDS011;70701;44.452;18.652;2023-12-20T06:34:03;198.43;;;92.97;;
81229;SDS011;70701;44.452;18.652;2023-12-20T06:36:28;205.00;;;100.20;;
81229;SDS011;70701;44.452;18.652;2023-12-20T06:38:54;189.47;;;94.60;;
81229;SDS011;70701;44.452;18.652;2023-12-20T06:41:20;182.00;;;94.30;;
81229;SDS011;70701;44.452;18.652;2023-12-20T06:43:46;182.63;;;90.73;;
81229;SDS011;70701;44.452;18.652;2023-12-20T06:46:15;239.30;;;106.23;;
81229;SDS011;70701;44.452;18.652;2023-12-20T06:48:42;247.67;;;115.33;;
81229;SDS011;70701;44.452;18.652;2023-12-20T06:51:10;218.33;;;116.43;;
81229;SDS011;70701;44.452;18.652;2023-12-20T06:53:38;248.30;;;119.80;;
81229;SDS011;70701;44.452;18.652;2023-12-20T06:56:03;248.17;;;122.80;;
81229;SDS011;70701;44.452;18.652;2023-12-20T06:58:29;235.90;;;112.37;;
81229;SDS011;70701;44.452;18.652;2023-12-20T07:00:55;210.90;;;108.37;;
81229;SDS011;70701;44.452;18.652;2023-12-20T07:03:20;251.73;;;113.87;;
81229;SDS011;70701;44.452;18.652;2023-12-20T07:05:46;246.93;;;115.67;;
81229;SDS011;70701;44.452;18.652;2023-12-20T07:08:11;307.53;;;140.10;;
81229;SDS011;70701;44.452;18.652;2023-12-20T07:10:39;266.67;;;122.47;;
81229;SDS011;70701;44.452;18.652;2023-12-20T07:13:05;234.60;;;112.50;;
81229;SDS011;70701;44.452;18.652;2023-12-20T07:15:31;215.90;;;106.43;;
81229;SDS011;70701;44.452;18.652;2023-12-20T07:17:57;213.57;;;101.67;;
81229;SDS011;70701;44.452;18.652;2023-12-20T07:20:25;249.87;;;109.67;;
81229;SDS011;70701;44.452;18.652;2023-12-20T07:22:50;209.43;;;110.27;;
81229;SDS011;70701;44.452;18.652;2023-12-20T07:25:16;211.47;;;107.77;;
81229;SDS011;70701;44.452;18.652;2023-12-20T07:27:42;227.77;;;115.93;;
81229;SDS011;70701;44.452;18.652;2023-12-20T07:30:08;252.83;;;125.77;;
81229;SDS011;70701;44.452;18.652;2023-12-20T07:32:34;244.60;;;123.37;;
81229;SDS011;70701;44.452;18.652;2023-12-20T07:34:59;227.90;;;125.20;;
81229;SDS011;70701;44.452;18.652;2023-12-20T07:37:25;216.90;;;114.10;;
81229;SDS011;70701;44.452;18.652;2023-12-20T07:39:51;193.33;;;102.73;;
81229;SDS011;70701;44.452;18.652;2023-12-20T07:42:16;179.17;;;91.50;;
81229;SDS011;70701;44.452;18.652;2023-12-20T07:44:42;158.17;;;88.03;;
81229;SDS011;70701;44.452;18.652;2023-12-20T07:47:07;201.87;;;104.77;;
81229;SDS011;70701;44.452;18.652;2023-12-20T07:49:33;194.93;;;106.03;;
81229;SDS011;70701;44.452;18.652;2023-12-20T07:51:59;206.50;;;96.77;;
81229;SDS011;70701;44.452;18.652;2023-12-20T07:54:24;192.23;;;99.80;;
81229;SDS011;70701;44.452;18.652;2023-12-20T07:56:50;213.00;;;103.30;;
81229;SDS011;70701;44.452;18.652;2023-12-20T07:59:16;205.10;;;100.73;;
81229;SDS011;70701;44.452;18.652;2023-12-20T08:01:43;200.43;;;101.43;;
81229;SDS011;70701;44.452;18.652;2023-12-20T08:04:08;215.97;;;104.87;;
81229;SDS011;70701;44.452;18.652;2023-12-20T08:06:34;239.03;;;115.60;;
81229;SDS011;70701;44.452;18.652;2023-12-20T08:08:59;242.87;;;122.10;;
81229;SDS011;70701;44.452;18.652;2023-12-20T08:11:25;245.90;;;127.53;;
81229;SDS011;70701;44.452;18.652;2023-12-20T08:13:51;264.13;;;130.40;;
81229;SDS011;70701;44.452;18.652;2023-12-20T08:16:16;278.47;;;137.57;;
81229;SDS011;70701;44.452;18.652;2023-12-20T08:18:43;277.00;;;141.03;;
81229;SDS011;70701;44.452;18.652;2023-12-20T08:21:08;281.10;;;140.70;;
81229;SDS011;70701;44.452;18.652;2023-12-20T08:23:34;235.97;;;127.40;;
81229;SDS011;70701;44.452;18.652;2023-12-20T08:26:06;210.70;;;116.80;;
81229;SDS011;70701;44.452;18.652;2023-12-20T08:28:32;192.83;;;101.50;;
81229;SDS011;70701;44.452;18.652;2023-12-20T08:30:58;158.27;;;91.77;;
81229;SDS011;70701;44.452;18.652;2023-12-20T08:33:24;143.53;;;85.57;;
81229;SDS011;70701;44.452;18.652;2023-12-20T08:35:50;161.40;;;91.93;;
81229;SDS011;70701;44.452;18.652;2023-12-20T08:38:16;160.00;;;91.53;;
81229;SDS011;70701;44.452;18.652;2023-12-20T08:40:43;160.47;;;85.47;;
81229;SDS011;70701;44.452;18.652;2023-12-20T08:43:09;153.73;;;86.47;;
81229;SDS011;70701;44.452;18.652;2023-12-20T08:45:34;155.00;;;86.27;;
81229;SDS011;70701;44.452;18.652;2023-12-20T08:48:00;152.10;;;91.00;;
81229;SDS011;70701;44.452;18.652;2023-12-20T08:50:26;164.30;;;92.47;;
81229;SDS011;70701;44.452;18.652;2023-12-20T08:52:51;154.03;;;88.30;;
81229;SDS011;70701;44.452;18.652;2023-12-20T08:55:17;180.90;;;95.53;;
81229;SDS011;70701;44.452;18.652;2023-12-20T08:57:43;158.83;;;90.67;;
81229;SDS011;70701;44.452;18.652;2023-12-20T09:00:09;149.37;;;81.70;;
81229;SDS011;70701;44.452;18.652;2023-12-20T09:02:35;147.97;;;78.20;;
81229;SDS011;70701;44.452;18.652;2023-12-20T09:05:01;176.23;;;85.30;;
81229;SDS011;70701;44.452;18.652;2023-12-20T09:07:27;145.63;;;80.37;;
81229;SDS011;70701;44.452;18.652;2023-12-20T09:09:55;146.27;;;83.10;;
81229;SDS011;70701;44.452;18.652;2023-12-20T09:12:21;144.00;;;84.13;;
81229;SDS011;70701;44.452;18.652;2023-12-20T09:14:47;160.53;;;90.93;;
81229;SDS011;70701;44.452;18.652;2023-12-20T09:17:14;166.20;;;99.33;;
81229;SDS011;70701;44.452;18.652;2023-12-20T09:19:41;190.77;;;109.23;;
81229;SDS011;70701;44.452;18.652;2023-12-20T09:22:13;179.57;;;103.73;;
81229;SDS011;70701;44.452;18.652;2023-12-20T09:24:38;189.13;;;107.10;;
81229;SDS011;70701;44.452;18.652;2023-12-20T09:27:05;186.00;;;103.80;;
81229;SDS011;70701;44.452;18.652;2023-12-20T09:29:31;163.20;;;93.43;;
81229;SDS011;70701;44.452;18.652;2023-12-20T09:31:57;147.50;;;87.53;;
81229;SDS011;70701;44.452;18.652;2023-12-20T09:34:22;167.27;;;96.47;;
81229;SDS011;70701;44.452;18.652;2023-12-20T09:36:48;168.17;;;94.17;;
81229;SDS011;70701;44.452;18.652;2023-12-20T09:39:14;156.10;;;90.93;;
81229;SDS011;70701;44.452;18.652;2023-12-20T09:41:44;183.07;;;93.57;;
81229;SDS011;70701;44.452;18.652;2023-12-20T09:44:15;180.27;;;92.83;;
81229;SDS011;70701;44.452;18.652;2023-12-20T09:46:45;165.75;;;87.82;;
81229;SDS011;70701;44.452;18.652;2023-12-20T09:49:14;144.13;;;83.60;;
81229;SDS011;70701;44.452;18.652;2023-12-20T09:51:42;164.57;;;96.77;;
81229;SDS011;70701;44.452;18.652;2023-12-20T09:54:08;156.37;;;95.53;;
81229;SDS011;70701;44.452;18.652;2023-12-20T09:56:34;153.93;;;93.00;;
81229;SDS011;70701;44.452;18.652;2023-12-20T09:59:00;155.27;;;89.43;;
81229;SDS011;70701;44.452;18.652;2023-12-20T10:01:26;147.97;;;89.73;;
81229;SDS011;70701;44.452;18.652;2023-12-20T10:03:54;155.47;;;93.00;;
81229;SDS011;70701;44.452;18.652;2023-12-20T10:06:20;160.57;;;99.40;;
81229;SDS011;70701;44.452;18.652;2023-12-20T10:08:46;175.37;;;105.27;;
81229;SDS011;70701;44.452;18.652;2023-12-20T10:11:12;170.03;;;104.20;;
81229;SDS011;70701;44.452;18.652;2023-12-20T10:13:42;173.63;;;107.33;;
81229;SDS011;70701;44.452;18.652;2023-12-20T10:16:08;172.17;;;103.83;;
81229;SDS011;70701;44.452;18.652;2023-12-20T10:18:34;151.83;;;100.70;;
81229;SDS011;70701;44.452;18.652;2023-12-20T10:21:03;206.60;;;128.10;;
81229;SDS011;70701;44.452;18.652;2023-12-20T10:23:29;200.87;;;123.13;;
81229;SDS011;70701;44.452;18.652;2023-12-20T10:25:56;206.27;;;131.20;;
81229;SDS011;70701;44.452;18.652;2023-12-20T10:28:23;258.50;;;153.73;;
81229;SDS011;70701;44.452;18.652;2023-12-20T10:30:53;324.37;;;169.73;;
81229;SDS011;70701;44.452;18.652;2023-12-20T10:33:25;295.67;;;164.70;;
81229;SDS011;70701;44.452;18.652;2023-12-20T10:35:52;304.33;;;170.43;;
81229;SDS011;70701;44.452;18.652;2023-12-20T10:38:18;300.63;;;174.93;;
81229;SDS011;70701;44.452;18.652;2023-12-20T10:40:47;384.03;;;220.17;;
81229;SDS011;70701;44.452;18.652;2023-12-20T10:43:14;376.60;;;220.13;;
81229;SDS011;70701;44.452;18.652;2023-12-20T10:45:41;334.37;;;200.13;;
81229;SDS011;70701;44.452;18.652;2023-12-20T10:48:09;326.90;;;190.40;;
81229;SDS011;70701;44.452;18.652;2023-12-20T10:50:36;330.67;;;193.53;;
81229;SDS011;70701;44.452;18.652;2023-12-20T10:53:03;398.57;;;229.30;;
81229;SDS011;70701;44.452;18.652;2023-12-20T10:55:29;384.63;;;218.53;;
81229;SDS011;70701;44.452;18.652;2023-12-20T10:58:01;394.20;;;216.23;;
81229;SDS011;70701;44.452;18.652;2023-12-20T11:00:38;391.00;;;214.77;;
81229;SDS011;70701;44.452;18.652;2023-12-20T11:03:12;386.90;;;207.87;;
81229;SDS011;70701;44.452;18.652;2023-12-20T11:05:46;408.67;;;219.60;;
81229;SDS011;70701;44.452;18.652;2023-12-20T11:11:04;478.00;;;257.53;;
81229;SDS011;70701;44.452;18.652;2023-12-20T11:13:40;479.07;;;267.23;;
81229;SDS011;70701;44.452;18.652;2023-12-20T11:16:13;471.10;;;256.87;;
81229;SDS011;70701;44.452;18.652;2023-12-20T11:18:40;462.10;;;249.83;;
81229;SDS011;70701;44.452;18.652;2023-12-20T11:21:06;440.73;;;233.40;;
81229;SDS011;70701;44.452;18.652;2023-12-20T11:23:33;481.83;;;276.87;;
81229;SDS011;70701;44.452;18.652;2023-12-20T11:25:59;504.47;;;282.30;;
81229;SDS011;70701;44.452;18.652;2023-12-20T11:28:26;522.20;;;302.03;;
81229;SDS011;70701;44.452;18.652;2023-12-20T11:30:56;505.60;;;297.50;;
81229;SDS011;70701;44.452;18.652;2023-12-20T11:33:26;521.53;;;296.40;;
81229;SDS011;70701;44.452;18.652;2023-12-20T11:35:52;502.60;;;300.07;;
81229;SDS011;70701;44.452;18.652;2023-12-20T11:38:21;485.40;;;297.10;;
81229;SDS011;70701;44.452;18.652;2023-12-20T11:40:48;474.30;;;280.57;;
81229;SDS011;70701;44.452;18.652;2023-12-20T11:43:30;478.97;;;291.57;;
81229;SDS011;70701;44.452;18.652;2023-12-20T11:46:05;456.03;;;271.43;;
81229;SDS011;70701;44.452;18.652;2023-12-20T11:48:39;468.67;;;278.23;;
81229;SDS011;70701;44.452;18.652;2023-12-20T11:51:09;444.67;;;261.50;;
81229;SDS011;70701;44.452;18.652;2023-12-20T11:53:35;456.80;;;268.37;;
81229;SDS011;70701;44.452;18.652;2023-12-20T11:56:02;449.47;;;270.73;;
81229;SDS011;70701;44.452;18.652;2023-12-20T11:58:29;463.47;;;270.17;;
81229;SDS011;70701;44.452;18.652;2023-12-20T12:00:55;481.27;;;285.87;;
81229;SDS011;70701;44.452;18.652;2023-12-20T12:03:21;468.43;;;287.93;;
81229;SDS011;70701;44.452;18.652;2023-12-20T12:05:49;483.07;;;286.50;;
81229;SDS011;70701;44.452;18.652;2023-12-20T12:08:14;499.20;;;297.87;;
81229;SDS011;70701;44.452;18.652;2023-12-20T12:10:40;469.53;;;278.23;;
81229;SDS011;70701;44.452;18.652;2023-12-20T12:13:06;403.90;;;230.37;;
81229;SDS011;70701;44.452;18.652;2023-12-20T12:15:32;355.70;;;198.63;;
81229;SDS011;70701;44.452;18.652;2023-12-20T12:17:58;395.93;;;223.03;;
81229;SDS011;70701;44.452;18.652;2023-12-20T12:20:24;492.23;;;293.60;;
81229;SDS011;70701;44.452;18.652;2023-12-20T12:23:05;468.90;;;286.67;;
81229;SDS011;70701;44.452;18.652;2023-12-20T12:25:32;446.43;;;270.13;;
81229;SDS011;70701;44.452;18.652;2023-12-20T12:28:00;490.70;;;295.30;;
81229;SDS011;70701;44.452;18.652;2023-12-20T12:30:26;459.33;;;277.43;;
81229;SDS011;70701;44.452;18.652;2023-12-20T12:32:53;457.53;;;275.10;;
81229;SDS011;70701;44.452;18.652;2023-12-20T12:35:19;480.47;;;303.77;;
81229;SDS011;70701;44.452;18.652;2023-12-20T12:37:45;458.30;;;284.47;;
81229;SDS011;70701;44.452;18.652;2023-12-20T12:40:12;487.23;;;312.27;;
81229;SDS011;70701;44.452;18.652;2023-12-20T12:42:39;492.43;;;313.03;;
81229;SDS011;70701;44.452;18.652;2023-12-20T12:45:06;528.67;;;339.40;;
81229;SDS011;70701;44.452;18.652;2023-12-20T12:47:31;556.33;;;356.83;;
81229;SDS011;70701;44.452;18.652;2023-12-20T12:49:58;582.47;;;378.17;;
81229;SDS011;70701;44.452;18.652;2023-12-20T12:52:23;604.47;;;397.10;;
81229;SDS011;70701;44.452;18.652;2023-12-20T12:54:49;610.50;;;411.07;;
81229;SDS011;70701;44.452;18.652;2023-12-20T12:57:15;597.23;;;390.63;;
81229;SDS011;70701;44.452;18.652;2023-12-20T12:59:44;588.73;;;385.53;;
81229;SDS011;70701;44.452;18.652;2023-12-20T13:02:13;517.87;;;337.90;;
81229;SDS011;70701;44.452;18.652;2023-12-20T13:04:40;420.27;;;266.67;;
81229;SDS011;70701;44.452;18.652;2023-12-20T13:07:06;426.70;;;255.43;;
81229;SDS011;70701;44.452;18.652;2023-12-20T13:09:33;398.50;;;247.47;;
81229;SDS011;70701;44.452;18.652;2023-12-20T13:12:00;413.60;;;265.33;;
81229;SDS011;70701;44.452;18.652;2023-12-20T13:14:28;471.73;;;297.23;;
81229;SDS011;70701;44.452;18.652;2023-12-20T13:16:54;465.57;;;297.33;;
81229;SDS011;70701;44.452;18.652;2023-12-20T13:19:21;475.80;;;300.13;;
81229;SDS011;70701;44.452;18.652;2023-12-20T13:21:46;495.83;;;317.70;;
81229;SDS011;70701;44.452;18.652;2023-12-20T13:24:12;469.17;;;308.40;;
81229;SDS011;70701;44.452;18.652;2023-12-20T13:26:38;480.17;;;309.43;;
81229;SDS011;70701;44.452;18.652;2023-12-20T13:29:03;468.53;;;306.43;;
81229;SDS011;70701;44.452;18.652;2023-12-20T13:31:29;470.40;;;300.93;;
81229;SDS011;70701;44.452;18.652;2023-12-20T13:33:54;438.27;;;287.37;;
81229;SDS011;70701;44.452;18.652;2023-12-20T13:36:20;459.97;;;298.90;;
81229;SDS011;70701;44.452;18.652;2023-12-20T13:38:46;468.90;;;301.13;;
81229;SDS011;70701;44.452;18.652;2023-12-20T13:41:11;475.93;;;309.10;;
81229;SDS011;70701;44.452;18.652;2023-12-20T13:43:37;492.87;;;325.50;;
81229;SDS011;70701;44.452;18.652;2023-12-20T13:46:03;496.43;;;323.97;;
81229;SDS011;70701;44.452;18.652;2023-12-20T13:48:29;461.90;;;303.27;;
81229;SDS011;70701;44.452;18.652;2023-12-20T13:50:54;452.60;;;281.33;;